sensor_id;sensor_type;location;lat;lon;timestamp;P1;durP1;ratioP1;P2;durP2;ratioP2
8297;SDS011;4187;42.778;23.242;2023-01-15T00:01:27;23.03;;;16.03;;
8297;SDS011;4187;42.778;23.242;2023-01-15T00:03:56;21.10;;;15.20;;
8297;SDS011;4187;42.778;23.242;2023-01-15T00:06:26;21.40;;;15.13;;
8297;SDS011;4187;42.778;23.242;2023-01-15T00:08:53;22.20;;;13.93;;
8297;SDS011;4187;42.778;23.242;2023-01-15T00:11:20;19.73;;;14.30;;
8297;SDS011;4187;42.778;23.242;2023-01-15T00:13:48;20.13;;;14.40;;
8297;SDS011;4187;42.778;23.242;2023-01-15T00:16:15;23.73;;;15.33;;
8297;SDS011;4187;42.778;23.242;2023-01-15T00:18:48;23.47;;;15.73;;
8297;SDS011;4187;42.778;23.242;2023-01-15T00:21:16;27.60;;;16.27;;
8297;SDS011;4187;42.778;23.242;2023-01-15T00:23:45;28.47;;;16.23;;
8297;SDS011;4187;42.778;23.242;2023-01-15T00:26:30;26.00;;;15.67;;
8297;SDS011;4187;42.778;23.242;2023-01-15T00:29:16;19.00;;;13.80;;
8297;SDS011;4187;42.778;23.242;2023-01-15T00:31:44;22.93;;;15.17;;
8297;SDS011;4187;42.778;23.242;2023-01-15T00:34:19;21.60;;;15.67;;
8297;SDS011;4187;42.778;23.242;2023-01-15T00:36:46;22.10;;;14.53;;
8297;SDS011;4187;42.778;23.242;2023-01-15T00:39:14;24.70;;;14.60;;
8297;SDS011;4187;42.778;23.242;2023-01-15T00:41:41;21.13;;;15.27;;
8297;SDS011;4187;42.778;23.242;2023-01-15T00:44:08;19.53;;;14.53;;
8297;SDS011;4187;42.778;23.242;2023-01-15T00:46:35;22.30;;;15.17;;
8297;SDS011;4187;42.778;23.242;2023-01-15T00:49:02;20.57;;;15.20;;
8297;SDS011;4187;42.778;23.242;2023-01-15T00:51:29;22.30;;;16.13;;
8297;SDS011;4187;42.778;23.242;2023-01-15T00:53:57;23.67;;;17.90;;
8297;SDS011;4187;42.778;23.242;2023-01-15T00:56:25;25.77;;;16.40;;
8297;SDS011;4187;42.778;23.242;2023-01-15T00:58:52;26.23;;;16.53;;
8297;SDS011;4187;42.778;23.242;2023-01-15T01:01:19;24.27;;;17.03;;
8297;SDS011;4187;42.778;23.242;2023-01-15T01:03:46;27.83;;;17.30;;
8297;SDS011;4187;42.778;23.242;2023-01-15T01:06:17;22.27;;;15.23;;
8297;SDS011;4187;42.778;23.242;2023-01-15T01:08:45;22.07;;;15.57;;
8297;SDS011;4187;42.778;23.242;2023-01-15T01:11:13;25.60;;;16.93;;
8297;SDS011;4187;42.778;23.242;2023-01-15T01:13:43;24.47;;;15.03;;
8297;SDS011;4187;42.778;23.242;2023-01-15T01:16:21;20.30;;;15.03;;
8297;SDS011;4187;42.778;23.242;2023-01-15T01:18:49;27.70;;;15.00;;
8297;SDS011;4187;42.778;23.242;2023-01-15T01:21:16;19.73;;;14.47;;
8297;SDS011;4187;42.778;23.242;2023-01-15T01:23:44;22.30;;;15.50;;
8297;SDS011;4187;42.778;23.242;2023-01-15T01:26:11;22.47;;;14.80;;
8297;SDS011;4187;42.778;23.242;2023-01-15T01:28:38;22.27;;;14.97;;
8297;SDS011;4187;42.778;23.242;2023-01-15T01:31:07;23.30;;;15.37;;
8297;SDS011;4187;42.778;23.242;2023-01-15T01:33:34;22.63;;;14.80;;
8297;SDS011;4187;42.778;23.242;2023-01-15T01:36:01;21.57;;;14.97;;
8297;SDS011;4187;42.778;23.242;2023-01-15T01:38:28;22.73;;;16.20;;
8297;SDS011;4187;42.778;23.242;2023-01-15T01:40:55;26.37;;;19.77;;
8297;SDS011;4187;42.778;23.242;2023-01-15T01:43:23;25.27;;;17.90;;
8297;SDS011;4187;42.778;23.242;2023-01-15T01:45:51;26.27;;;20.83;;
8297;SDS011;4187;42.778;23.242;2023-01-15T01:48:21;27.87;;;21.70;;
8297;SDS011;4187;42.778;23.242;2023-01-15T01:50:52;24.43;;;19.53;;
8297;SDS011;4187;42.778;23.242;2023-01-15T01:53:22;26.23;;;19.13;;
8297;SDS011;4187;42.778;23.242;2023-01-15T01:55:52;25.47;;;18.53;;
8297;SDS011;4187;42.778;23.242;2023-01-15T01:58:20;23.00;;;17.10;;
8297;SDS011;4187;42.778;23.242;2023-01-15T02:00:49;21.87;;;16.67;;
8297;SDS011;4187;42.778;23.242;2023-01-15T02:03:20;22.13;;;16.23;;
8297;SDS011;4187;42.778;23.242;2023-01-15T02:05:52;24.10;;;16.87;;
8297;SDS011;4187;42.778;23.242;2023-01-15T02:08:23;25.10;;;17.20;;
8297;SDS011;4187;42.778;23.242;2023-01-15T02:10:51;24.40;;;15.63;;
8297;SDS011;4187;42.778;23.242;2023-01-15T02:13:20;23.03;;;16.47;;
8297;SDS011;4187;42.778;23.242;2023-01-15T02:15:54;22.43;;;16.23;;
8297;SDS011;4187;42.778;23.242;2023-01-15T02:18:29;20.70;;;15.30;;
8297;SDS011;4187;42.778;23.242;2023-01-15T02:21:03;22.20;;;15.43;;
8297;SDS011;4187;42.778;23.242;2023-01-15T02:23:51;21.10;;;16.03;;
8297;SDS011;4187;42.778;23.242;2023-01-15T02:29:26;19.97;;;14.50;;
8297;SDS011;4187;42.778;23.242;2023-01-15T02:31:57;21.93;;;15.67;;
8297;SDS011;4187;42.778;23.242;2023-01-15T02:34:28;21.57;;;15.13;;
8297;SDS011;4187;42.778;23.242;2023-01-15T02:36:59;20.37;;;13.97;;
8297;SDS011;4187;42.778;23.242;2023-01-15T02:39:29;19.80;;;15.70;;
8297;SDS011;4187;42.778;23.242;2023-01-15T02:41:59;22.57;;;15.80;;
8297;SDS011;4187;42.778;23.242;2023-01-15T02:44:31;21.87;;;15.73;;
8297;SDS011;4187;42.778;23.242;2023-01-15T02:47:01;19.50;;;13.87;;
8297;SDS011;4187;42.778;23.242;2023-01-15T02:49:30;20.13;;;15.17;;
8297;SDS011;4187;42.778;23.242;2023-01-15T02:51:59;20.87;;;15.67;;
8297;SDS011;4187;42.778;23.242;2023-01-15T02:54:30;21.37;;;14.80;;
8297;SDS011;4187;42.778;23.242;2023-01-15T02:57:02;18.93;;;14.07;;
8297;SDS011;4187;42.778;23.242;2023-01-15T02:59:34;18.53;;;13.67;;
8297;SDS011;4187;42.778;23.242;2023-01-15T03:02:05;18.63;;;13.33;;
8297;SDS011;4187;42.778;23.242;2023-01-15T03:04:36;20.87;;;15.43;;
8297;SDS011;4187;42.778;23.242;2023-01-15T03:07:08;20.67;;;14.40;;
8297;SDS011;4187;42.778;23.242;2023-01-15T03:09:39;18.60;;;14.17;;
8297;SDS011;4187;42.778;23.242;2023-01-15T03:12:07;18.77;;;13.53;;
8297;SDS011;4187;42.778;23.242;2023-01-15T03:14:43;22.53;;;14.47;;
8297;SDS011;4187;42.778;23.242;2023-01-15T03:17:22;22.73;;;14.57;;
8297;SDS011;4187;42.778;23.242;2023-01-15T03:19:55;18.97;;;14.07;;
8297;SDS011;4187;42.778;23.242;2023-01-15T03:22:25;20.07;;;14.10;;
8297;SDS011;4187;42.778;23.242;2023-01-15T03:24:56;21.43;;;14.57;;
8297;SDS011;4187;42.778;23.242;2023-01-15T03:27:28;19.30;;;13.20;;
8297;SDS011;4187;42.778;23.242;2023-01-15T03:29:59;16.97;;;12.87;;
8297;SDS011;4187;42.778;23.242;2023-01-15T03:32:29;16.47;;;12.67;;
8297;SDS011;4187;42.778;23.242;2023-01-15T03:34:56;18.20;;;12.80;;
8297;SDS011;4187;42.778;23.242;2023-01-15T03:37:24;17.70;;;11.93;;
8297;SDS011;4187;42.778;23.242;2023-01-15T03:39:53;16.53;;;12.33;;
8297;SDS011;4187;42.778;23.242;2023-01-15T03:42:28;20.87;;;13.03;;
8297;SDS011;4187;42.778;23.242;2023-01-15T03:45:08;16.83;;;11.97;;
8297;SDS011;4187;42.778;23.242;2023-01-15T03:47:41;17.47;;;13.77;;
8297;SDS011;4187;42.778;23.242;2023-01-15T03:50:18;17.93;;;12.90;;
8297;SDS011;4187;42.778;23.242;2023-01-15T03:52:52;19.13;;;13.43;;
8297;SDS011;4187;42.778;23.242;2023-01-15T03:55:30;58.43;;;34.30;;
8297;SDS011;4187;42.778;23.242;2023-01-15T03:58:04;40.10;;;24.90;;
8297;SDS011;4187;42.778;23.242;2023-01-15T04:00:39;29.00;;;19.70;;
8297;SDS011;4187;42.778;23.242;2023-01-15T04:03:10;28.47;;;19.90;;
8297;SDS011;4187;42.778;23.242;2023-01-15T04:05:39;22.90;;;15.37;;
8297;SDS011;4187;42.778;23.242;2023-01-15T04:08:07;22.70;;;15.80;;
8297;SDS011;4187;42.778;23.242;2023-01-15T04:10:34;19.00;;;14.50;;
8297;SDS011;4187;42.778;23.242;2023-01-15T04:13:01;19.70;;;14.83;;
8297;SDS011;4187;42.778;23.242;2023-01-15T04:15:28;21.03;;;15.23;;
8297;SDS011;4187;42.778;23.242;2023-01-15T04:17:56;24.40;;;16.37;;
8297;SDS011;4187;42.778;23.242;2023-01-15T04:20:23;24.47;;;16.97;;
8297;SDS011;4187;42.778;23.242;2023-01-15T04:22:50;21.97;;;15.77;;
8297;SDS011;4187;42.778;23.242;2023-01-15T04:25:17;20.17;;;14.60;;
8297;SDS011;4187;42.778;23.242;2023-01-15T04:27:44;19.83;;;14.33;;
8297;SDS011;4187;42.778;23.242;2023-01-15T04:30:11;18.07;;;13.80;;
8297;SDS011;4187;42.778;23.242;2023-01-15T04:32:38;18.83;;;13.77;;
8297;SDS011;4187;42.778;23.242;2023-01-15T04:35:06;20.97;;;14.73;;
8297;SDS011;4187;42.778;23.242;2023-01-15T04:37:33;17.90;;;12.27;;
8297;SDS011;4187;42.778;23.242;2023-01-15T04:40:00;17.10;;;12.40;;
8297;SDS011;4187;42.778;23.242;2023-01-15T04:42:27;16.07;;;12.67;;
8297;SDS011;4187;42.778;23.242;2023-01-15T04:45:11;17.17;;;12.23;;
8297;SDS011;4187;42.778;23.242;2023-01-15T04:47:38;20.13;;;13.30;;
8297;SDS011;4187;42.778;23.242;2023-01-15T04:50:07;20.80;;;13.60;;
8297;SDS011;4187;42.778;23.242;2023-01-15T04:52:35;19.43;;;13.80;;
8297;SDS011;4187;42.778;23.242;2023-01-15T04:55:02;19.07;;;14.63;;
8297;SDS011;4187;42.778;23.242;2023-01-15T04:57:29;19.30;;;14.23;;
8297;SDS011;4187;42.778;23.242;2023-01-15T04:59:56;18.77;;;12.47;;
8297;SDS011;4187;42.778;23.242;2023-01-15T05:02:23;21.97;;;14.93;;
8297;SDS011;4187;42.778;23.242;2023-01-15T05:04:50;18.57;;;15.33;;
8297;SDS011;4187;42.778;23.242;2023-01-15T05:07:18;16.67;;;11.93;;
8297;SDS011;4187;42.778;23.242;2023-01-15T05:09:45;14.50;;;11.03;;
8297;SDS011;4187;42.778;23.242;2023-01-15T05:12:15;17.37;;;12.40;;
8297;SDS011;4187;42.778;23.242;2023-01-15T05:14:42;21.73;;;15.30;;
8297;SDS011;4187;42.778;23.242;2023-01-15T05:17:09;17.00;;;12.97;;
8297;SDS011;4187;42.778;23.242;2023-01-15T05:19:36;21.67;;;16.73;;
8297;SDS011;4187;42.778;23.242;2023-01-15T05:22:02;15.67;;;11.40;;
8297;SDS011;4187;42.778;23.242;2023-01-15T05:24:31;12.67;;;9.73;;
8297;SDS011;4187;42.778;23.242;2023-01-15T05:26:57;16.77;;;13.23;;
8297;SDS011;4187;42.778;23.242;2023-01-15T05:29:24;13.73;;;10.77;;
8297;SDS011;4187;42.778;23.242;2023-01-15T05:31:51;15.77;;;12.63;;
8297;SDS011;4187;42.778;23.242;2023-01-15T05:34:18;22.73;;;16.13;;
8297;SDS011;4187;42.778;23.242;2023-01-15T05:36:45;23.57;;;18.13;;
8297;SDS011;4187;42.778;23.242;2023-01-15T05:39:12;22.20;;;14.50;;
8297;SDS011;4187;42.778;23.242;2023-01-15T05:41:40;17.73;;;12.33;;
8297;SDS011;4187;42.778;23.242;2023-01-15T05:44:17;15.80;;;10.07;;
8297;SDS011;4187;42.778;23.242;2023-01-15T05:46:46;15.63;;;11.10;;
8297;SDS011;4187;42.778;23.242;2023-01-15T05:49:14;14.47;;;10.50;;
8297;SDS011;4187;42.778;23.242;2023-01-15T05:51:42;15.23;;;12.27;;
8297;SDS011;4187;42.778;23.242;2023-01-15T05:54:11;13.63;;;10.03;;
8297;SDS011;4187;42.778;23.242;2023-01-15T05:56:41;17.03;;;12.70;;
8297;SDS011;4187;42.778;23.242;2023-01-15T05:59:10;13.93;;;10.33;;
8297;SDS011;4187;42.778;23.242;2023-01-15T06:01:37;12.17;;;9.67;;
8297;SDS011;4187;42.778;23.242;2023-01-15T06:04:04;11.77;;;9.50;;
8297;SDS011;4187;42.778;23.242;2023-01-15T06:06:32;18.10;;;13.10;;
8297;SDS011;4187;42.778;23.242;2023-01-15T06:08:59;22.90;;;16.17;;
8297;SDS011;4187;42.778;23.242;2023-01-15T06:11:27;20.43;;;13.47;;
8297;SDS011;4187;42.778;23.242;2023-01-15T06:13:55;26.10;;;16.03;;
8297;SDS011;4187;42.778;23.242;2023-01-15T06:16:22;30.23;;;20.53;;
8297;SDS011;4187;42.778;23.242;2023-01-15T06:18:48;21.83;;;15.57;;
8297;SDS011;4187;42.778;23.242;2023-01-15T06:21:16;28.63;;;20.17;;
8297;SDS011;4187;42.778;23.242;2023-01-15T06:23:43;28.07;;;19.03;;
8297;SDS011;4187;42.778;23.242;2023-01-15T06:26:10;40.53;;;25.67;;
8297;SDS011;4187;42.778;23.242;2023-01-15T06:28:38;30.30;;;20.17;;
8297;SDS011;4187;42.778;23.242;2023-01-15T06:31:07;32.13;;;20.60;;
8297;SDS011;4187;42.778;23.242;2023-01-15T06:33:35;25.07;;;17.67;;
8297;SDS011;4187;42.778;23.242;2023-01-15T06:36:03;26.00;;;18.33;;
8297;SDS011;4187;42.778;23.242;2023-01-15T06:38:30;73.30;;;37.27;;
8297;SDS011;4187;42.778;23.242;2023-01-15T06:40:58;71.80;;;39.97;;
8297;SDS011;4187;42.778;23.242;2023-01-15T06:43:25;33.43;;;22.10;;
8297;SDS011;4187;42.778;23.242;2023-01-15T06:46:11;25.40;;;18.10;;
8297;SDS011;4187;42.778;23.242;2023-01-15T06:48:55;23.20;;;16.57;;
8297;SDS011;4187;42.778;23.242;2023-01-15T06:51:22;24.47;;;19.17;;
8297;SDS011;4187;42.778;23.242;2023-01-15T06:53:49;28.50;;;22.93;;
8297;SDS011;4187;42.778;23.242;2023-01-15T06:56:16;30.87;;;24.43;;
8297;SDS011;4187;42.778;23.242;2023-01-15T06:58:43;45.63;;;31.93;;
8297;SDS011;4187;42.778;23.242;2023-01-15T07:01:12;37.77;;;27.27;;
8297;SDS011;4187;42.778;23.242;2023-01-15T07:03:40;43.10;;;29.17;;
8297;SDS011;4187;42.778;23.242;2023-01-15T07:06:08;51.10;;;33.87;;
8297;SDS011;4187;42.778;23.242;2023-01-15T07:08:36;40.03;;;27.80;;
8297;SDS011;4187;42.778;23.242;2023-01-15T07:11:03;47.90;;;30.87;;
8297;SDS011;4187;42.778;23.242;2023-01-15T07:13:31;51.33;;;33.33;;
8297;SDS011;4187;42.778;23.242;2023-01-15T07:15:58;36.50;;;26.70;;
8297;SDS011;4187;42.778;23.242;2023-01-15T07:18:28;30.93;;;23.10;;
8297;SDS011;4187;42.778;23.242;2023-01-15T07:20:55;44.10;;;30.17;;
8297;SDS011;4187;42.778;23.242;2023-01-15T07:23:23;33.40;;;23.23;;
8297;SDS011;4187;42.778;23.242;2023-01-15T07:25:51;24.77;;;18.97;;
8297;SDS011;4187;42.778;23.242;2023-01-15T07:28:19;25.57;;;18.17;;
8297;SDS011;4187;42.778;23.242;2023-01-15T07:30:46;26.47;;;17.10;;
8297;SDS011;4187;42.778;23.242;2023-01-15T07:33:13;22.10;;;16.93;;
8297;SDS011;4187;42.778;23.242;2023-01-15T07:35:41;23.70;;;18.63;;
8297;SDS011;4187;42.778;23.242;2023-01-15T07:38:08;28.17;;;19.67;;
8297;SDS011;4187;42.778;23.242;2023-01-15T07:40:35;32.27;;;22.50;;
8297;SDS011;4187;42.778;23.242;2023-01-15T07:43:02;34.87;;;23.53;;
8297;SDS011;4187;42.778;23.242;2023-01-15T07:45:46;38.53;;;26.50;;
8297;SDS011;4187;42.778;23.242;2023-01-15T07:48:31;27.43;;;19.80;;
8297;SDS011;4187;42.778;23.242;2023-01-15T07:51:17;41.47;;;27.80;;
8297;SDS011;4187;42.778;23.242;2023-01-15T07:53:44;44.73;;;29.27;;
8297;SDS011;4187;42.778;23.242;2023-01-15T07:56:11;33.63;;;24.20;;
8297;SDS011;4187;42.778;23.242;2023-01-15T07:58:38;29.57;;;21.63;;
8297;SDS011;4187;42.778;23.242;2023-01-15T08:01:05;33.97;;;21.53;;
8297;SDS011;4187;42.778;23.242;2023-01-15T08:03:32;31.97;;;21.80;;
8297;SDS011;4187;42.778;23.242;2023-01-15T08:05:59;24.60;;;16.27;;
8297;SDS011;4187;42.778;23.242;2023-01-15T08:08:27;24.00;;;16.07;;
8297;SDS011;4187;42.778;23.242;2023-01-15T08:10:54;26.67;;;19.07;;
8297;SDS011;4187;42.778;23.242;2023-01-15T08:13:34;25.90;;;17.63;;
8297;SDS011;4187;42.778;23.242;2023-01-15T08:16:18;25.08;;;18.20;;
8297;SDS011;4187;42.778;23.242;2023-01-15T08:18:45;33.17;;;21.55;;
8297;SDS011;4187;42.778;23.242;2023-01-15T08:21:15;25.20;;;17.48;;
8297;SDS011;4187;42.778;23.242;2023-01-15T08:23:43;19.92;;;15.18;;
8297;SDS011;4187;42.778;23.242;2023-01-15T08:26:11;18.55;;;15.10;;
8297;SDS011;4187;42.778;23.242;2023-01-15T08:28:39;19.83;;;13.27;;
8297;SDS011;4187;42.778;23.242;2023-01-15T08:31:06;22.52;;;16.75;;
8297;SDS011;4187;42.778;23.242;2023-01-15T08:33:33;24.17;;;15.63;;
8297;SDS011;4187;42.778;23.242;2023-01-15T08:36:01;21.02;;;15.40;;
8297;SDS011;4187;42.778;23.242;2023-01-15T08:38:28;16.30;;;12.32;;
8297;SDS011;4187;42.778;23.242;2023-01-15T08:40:56;15.45;;;12.95;;
8297;SDS011;4187;42.778;23.242;2023-01-15T08:43:28;14.73;;;11.23;;
8297;SDS011;4187;42.778;23.242;2023-01-15T08:45:56;11.18;;;9.75;;
8297;SDS011;4187;42.778;23.242;2023-01-15T08:48:23;14.77;;;10.82;;
8297;SDS011;4187;42.778;23.242;2023-01-15T08:50:51;13.18;;;10.85;;
8297;SDS011;4187;42.778;23.242;2023-01-15T08:53:18;13.98;;;10.25;;
8297;SDS011;4187;42.778;23.242;2023-01-15T08:55:45;15.18;;;11.38;;
8297;SDS011;4187;42.778;23.242;2023-01-15T08:58:14;18.48;;;10.60;;
8297;SDS011;4187;42.778;23.242;2023-01-15T09:00:41;15.27;;;11.23;;
8297;SDS011;4187;42.778;23.242;2023-01-15T09:03:09;15.02;;;11.68;;
8297;SDS011;4187;42.778;23.242;2023-01-15T09:05:36;15.05;;;11.57;;
8297;SDS011;4187;42.778;23.242;2023-01-15T09:08:03;14.20;;;11.73;;
8297;SDS011;4187;42.778;23.242;2023-01-15T09:10:30;13.82;;;10.90;;
8297;SDS011;4187;42.778;23.242;2023-01-15T09:12:58;11.45;;;9.10;;
8297;SDS011;4187;42.778;23.242;2023-01-15T09:15:27;13.93;;;11.32;;
8297;SDS011;4187;42.778;23.242;2023-01-15T09:17:54;15.20;;;10.88;;
8297;SDS011;4187;42.778;23.242;2023-01-15T09:20:21;16.55;;;12.70;;
8297;SDS011;4187;42.778;23.242;2023-01-15T09:22:48;16.92;;;12.57;;
8297;SDS011;4187;42.778;23.242;2023-01-15T09:25:15;16.33;;;12.68;;
8297;SDS011;4187;42.778;23.242;2023-01-15T09:27:44;16.25;;;12.75;;
8297;SDS011;4187;42.778;23.242;2023-01-15T09:30:13;17.08;;;13.27;;
8297;SDS011;4187;42.778;23.242;2023-01-15T09:32:44;16.85;;;12.93;;
8297;SDS011;4187;42.778;23.242;2023-01-15T09:35:11;16.38;;;11.57;;
8297;SDS011;4187;42.778;23.242;2023-01-15T09:37:38;20.42;;;14.38;;
8297;SDS011;4187;42.778;23.242;2023-01-15T09:40:05;15.35;;;11.48;;
8297;SDS011;4187;42.778;23.242;2023-01-15T09:42:37;16.67;;;13.20;;
8297;SDS011;4187;42.778;23.242;2023-01-15T09:45:13;15.45;;;11.98;;
8297;SDS011;4187;42.778;23.242;2023-01-15T09:47:49;16.20;;;11.52;;
8297;SDS011;4187;42.778;23.242;2023-01-15T09:50:37;14.07;;;11.63;;
8297;SDS011;4187;42.778;23.242;2023-01-15T09:53:21;13.60;;;10.50;;
8297;SDS011;4187;42.778;23.242;2023-01-15T09:55:59;12.32;;;9.85;;
8297;SDS011;4187;42.778;23.242;2023-01-15T09:58:30;11.73;;;9.45;;
8297;SDS011;4187;42.778;23.242;2023-01-15T10:01:00;12.63;;;9.68;;
8297;SDS011;4187;42.778;23.242;2023-01-15T10:03:30;15.32;;;10.05;;
8297;SDS011;4187;42.778;23.242;2023-01-15T10:06:04;11.48;;;8.85;;
8297;SDS011;4187;42.778;23.242;2023-01-15T10:08:40;11.73;;;9.10;;
8297;SDS011;4187;42.778;23.242;2023-01-15T10:11:27;12.68;;;10.55;;
8297;SDS011;4187;42.778;23.242;2023-01-15T10:14:21;9.02;;;8.02;;
8297;SDS011;4187;42.778;23.242;2023-01-15T10:17:03;10.00;;;7.80;;
8297;SDS011;4187;42.778;23.242;2023-01-15T10:19:33;10.98;;;9.43;;
8297;SDS011;4187;42.778;23.242;2023-01-15T10:22:01;9.77;;;8.77;;
8297;SDS011;4187;42.778;23.242;2023-01-15T10:24:33;13.02;;;8.93;;
8297;SDS011;4187;42.778;23.242;2023-01-15T10:27:05;12.10;;;9.50;;
8297;SDS011;4187;42.778;23.242;2023-01-15T10:29:42;21.70;;;13.18;;
8297;SDS011;4187;42.778;23.242;2023-01-15T10:32:18;19.17;;;11.75;;
8297;SDS011;4187;42.778;23.242;2023-01-15T10:35:01;11.10;;;9.90;;
8297;SDS011;4187;42.778;23.242;2023-01-15T10:37:34;11.85;;;9.38;;
8297;SDS011;4187;42.778;23.242;2023-01-15T10:40:20;13.75;;;11.38;;
8297;SDS011;4187;42.778;23.242;2023-01-15T10:43:00;14.95;;;11.63;;
8297;SDS011;4187;42.778;23.242;2023-01-15T10:45:32;18.58;;;12.70;;
8297;SDS011;4187;42.778;23.242;2023-01-15T10:48:04;16.55;;;13.18;;
8297;SDS011;4187;42.778;23.242;2023-01-15T10:50:38;15.20;;;10.82;;
8297;SDS011;4187;42.778;23.242;2023-01-15T10:53:08;13.13;;;10.65;;
8297;SDS011;4187;42.778;23.242;2023-01-15T10:55:41;15.80;;;12.70;;
8297;SDS011;4187;42.778;23.242;2023-01-15T10:58:13;16.23;;;12.32;;
8297;SDS011;4187;42.778;23.242;2023-01-15T11:00:49;13.88;;;10.50;;
8297;SDS011;4187;42.778;23.242;2023-01-15T11:03:23;15.05;;;10.60;;
8297;SDS011;4187;42.778;23.242;2023-01-15T11:06:01;11.45;;;9.73;;
8297;SDS011;4187;42.778;23.242;2023-01-15T11:08:29;14.25;;;10.35;;
8297;SDS011;4187;42.778;23.242;2023-01-15T11:11:02;13.60;;;10.90;;
8297;SDS011;4187;42.778;23.242;2023-01-15T11:13:50;11.77;;;10.45;;
8297;SDS011;4187;42.778;23.242;2023-01-15T11:16:35;11.95;;;10.13;;
8297;SDS011;4187;42.778;23.242;2023-01-15T11:19:21;11.35;;;10.15;;
8297;SDS011;4187;42.778;23.242;2023-01-15T11:22:07;16.58;;;11.20;;
8297;SDS011;4187;42.778;23.242;2023-01-15T11:24:36;11.52;;;10.25;;
8297;SDS011;4187;42.778;23.242;2023-01-15T11:27:04;12.38;;;9.75;;
8297;SDS011;4187;42.778;23.242;2023-01-15T11:29:33;14.38;;;10.75;;
8297;SDS011;4187;42.778;23.242;2023-01-15T11:32:02;14.90;;;11.77;;
8297;SDS011;4187;42.778;23.242;2023-01-15T11:34:29;10.95;;;8.20;;
8297;SDS011;4187;42.778;23.242;2023-01-15T11:37:02;13.18;;;10.32;;
8297;SDS011;4187;42.778;23.242;2023-01-15T11:39:31;13.30;;;10.70;;
8297;SDS011;4187;42.778;23.242;2023-01-15T11:41:59;13.90;;;9.95;;
8297;SDS011;4187;42.778;23.242;2023-01-15T11:44:51;9.75;;;8.27;;
8297;SDS011;4187;42.778;23.242;2023-01-15T11:47:37;12.27;;;8.23;;
8297;SDS011;4187;42.778;23.242;2023-01-15T11:50:21;10.98;;;8.77;;
8297;SDS011;4187;42.778;23.242;2023-01-15T11:53:06;10.75;;;8.20;;
8297;SDS011;4187;42.778;23.242;2023-01-15T11:55:40;10.23;;;8.93;;
8297;SDS011;4187;42.778;23.242;2023-01-15T11:58:16;10.15;;;8.82;;
8297;SDS011;4187;42.778;23.242;2023-01-15T12:00:43;11.23;;;9.40;;
8297;SDS011;4187;42.778;23.242;2023-01-15T12:03:16;11.70;;;8.95;;
8297;SDS011;4187;42.778;23.242;2023-01-15T12:05:46;8.80;;;7.90;;
8297;SDS011;4187;42.778;23.242;2023-01-15T12:08:21;9.63;;;7.65;;
8297;SDS011;4187;42.778;23.242;2023-01-15T12:11:01;9.73;;;7.93;;
8297;SDS011;4187;42.778;23.242;2023-01-15T12:13:42;9.85;;;8.27;;
8297;SDS011;4187;42.778;23.242;2023-01-15T12:16:17;8.05;;;7.25;;
8297;SDS011;4187;42.778;23.242;2023-01-15T12:18:54;8.75;;;7.85;;
8297;SDS011;4187;42.778;23.242;2023-01-15T12:21:36;10.48;;;7.78;;
8297;SDS011;4187;42.778;23.242;2023-01-15T12:27:41;9.43;;;7.07;;
8297;SDS011;4187;42.778;23.242;2023-01-15T12:30:31;8.98;;;8.07;;
8297;SDS011;4187;42.778;23.242;2023-01-15T12:33:06;8.88;;;7.95;;
8297;SDS011;4187;42.778;23.242;2023-01-15T12:35:43;9.15;;;8.25;;
8297;SDS011;4187;42.778;23.242;2023-01-15T12:38:15;10.40;;;7.50;;
8297;SDS011;4187;42.778;23.242;2023-01-15T12:40:47;9.70;;;7.88;;
8297;SDS011;4187;42.778;23.242;2023-01-15T12:43:20;8.55;;;6.70;;
8297;SDS011;4187;42.778;23.242;2023-01-15T12:46:09;7.65;;;6.85;;
8297;SDS011;4187;42.778;23.242;2023-01-15T12:48:41;8.60;;;7.20;;
8297;SDS011;4187;42.778;23.242;2023-01-15T12:51:18;9.40;;;7.18;;
8297;SDS011;4187;42.778;23.242;2023-01-15T12:53:54;9.75;;;7.30;;
8297;SDS011;4187;42.778;23.242;2023-01-15T12:56:27;7.35;;;6.65;;
8297;SDS011;4187;42.778;23.242;2023-01-15T12:59:03;8.50;;;7.70;;
8297;SDS011;4187;42.778;23.242;2023-01-15T13:01:37;9.52;;;8.10;;
8297;SDS011;4187;42.778;23.242;2023-01-15T13:04:15;9.10;;;7.70;;
8297;SDS011;4187;42.778;23.242;2023-01-15T13:06:49;8.60;;;7.70;;
8297;SDS011;4187;42.778;23.242;2023-01-15T13:09:23;7.28;;;6.53;;
8297;SDS011;4187;42.778;23.242;2023-01-15T13:11:59;9.18;;;6.97;;
8297;SDS011;4187;42.778;23.242;2023-01-15T13:14:27;8.32;;;6.90;;
8297;SDS011;4187;42.778;23.242;2023-01-15T13:16:55;8.93;;;8.02;;
8297;SDS011;4187;42.778;23.242;2023-01-15T13:19:30;8.45;;;6.70;;
8297;SDS011;4187;42.778;23.242;2023-01-15T13:22:06;8.85;;;7.95;;
8297;SDS011;4187;42.778;23.242;2023-01-15T13:24:51;10.45;;;7.80;;
8297;SDS011;4187;42.778;23.242;2023-01-15T13:27:33;9.68;;;8.20;;
8297;SDS011;4187;42.778;23.242;2023-01-15T13:30:19;11.13;;;8.30;;
8297;SDS011;4187;42.778;23.242;2023-01-15T13:33:03;7.38;;;6.60;;
8297;SDS011;4187;42.778;23.242;2023-01-15T13:35:39;8.80;;;7.35;;
8297;SDS011;4187;42.778;23.242;2023-01-15T13:38:13;9.00;;;7.57;;
8297;SDS011;4187;42.778;23.242;2023-01-15T13:40:44;12.00;;;8.57;;
8297;SDS011;4187;42.778;23.242;2023-01-15T13:43:23;10.20;;;8.77;;
8297;SDS011;4187;42.778;23.242;2023-01-15T13:45:57;8.80;;;7.63;;
8297;SDS011;4187;42.778;23.242;2023-01-15T13:48:28;8.32;;;7.45;;
8297;SDS011;4187;42.778;23.242;2023-01-15T13:50:58;10.23;;;7.95;;
8297;SDS011;4187;42.778;23.242;2023-01-15T13:53:27;10.90;;;9.65;;
8297;SDS011;4187;42.778;23.242;2023-01-15T13:55:57;9.70;;;8.60;;
8297;SDS011;4187;42.778;23.242;2023-01-15T13:58:30;13.27;;;11.00;;
8297;SDS011;4187;42.778;23.242;2023-01-15T14:03:56;8.70;;;7.90;;
8297;SDS011;4187;42.778;23.242;2023-01-15T14:06:40;9.30;;;7.43;;
8297;SDS011;4187;42.778;23.242;2023-01-15T14:09:12;9.68;;;8.60;;
8297;SDS011;4187;42.778;23.242;2023-01-15T14:11:43;11.30;;;8.70;;
8297;SDS011;4187;42.778;23.242;2023-01-15T14:14:30;9.60;;;7.20;;
8297;SDS011;4187;42.778;23.242;2023-01-15T14:20:34;8.57;;;6.65;;
8297;SDS011;4187;42.778;23.242;2023-01-15T14:23:08;9.35;;;6.78;;
8297;SDS011;4187;42.778;23.242;2023-01-15T14:25:52;10.18;;;7.40;;
8297;SDS011;4187;42.778;23.242;2023-01-15T14:34:16;8.55;;;6.97;;
8297;SDS011;4187;42.778;23.242;2023-01-15T14:36:49;8.30;;;7.38;;
8297;SDS011;4187;42.778;23.242;2023-01-15T14:39:24;8.10;;;7.18;;
8297;SDS011;4187;42.778;23.242;2023-01-15T14:41:55;9.25;;;7.07;;
8297;SDS011;4187;42.778;23.242;2023-01-15T14:44:43;12.25;;;8.38;;
8297;SDS011;4187;42.778;23.242;2023-01-15T14:47:17;11.10;;;8.40;;
8297;SDS011;4187;42.778;23.242;2023-01-15T14:49:59;13.00;;;9.60;;
8297;SDS011;4187;42.778;23.242;2023-01-15T14:52:28;17.60;;;12.63;;
8297;SDS011;4187;42.778;23.242;2023-01-15T14:54:56;20.13;;;14.32;;
8297;SDS011;4187;42.778;23.242;2023-01-15T14:57:24;19.13;;;13.27;;
8297;SDS011;4187;42.778;23.242;2023-01-15T14:59:52;19.17;;;13.05;;
8297;SDS011;4187;42.778;23.242;2023-01-15T15:02:25;11.52;;;10.32;;
8297;SDS011;4187;42.778;23.242;2023-01-15T15:04:59;23.35;;;18.33;;
8297;SDS011;4187;42.778;23.242;2023-01-15T15:07:29;12.88;;;10.63;;
8297;SDS011;4187;42.778;23.242;2023-01-15T15:10:03;11.88;;;10.10;;
8297;SDS011;4187;42.778;23.242;2023-01-15T15:12:34;11.30;;;9.32;;
8297;SDS011;4187;42.778;23.242;2023-01-15T15:15:10;11.40;;;8.85;;
8297;SDS011;4187;42.778;23.242;2023-01-15T15:17:43;11.23;;;9.68;;
8297;SDS011;4187;42.778;23.242;2023-01-15T15:20:21;10.63;;;7.85;;
8297;SDS011;4187;42.778;23.242;2023-01-15T15:22:54;11.63;;;8.57;;
8297;SDS011;4187;42.778;23.242;2023-01-15T15:25:24;17.05;;;12.48;;